TimeEST,TemperatureF,Dew PointF,Humidity,Sea Level PressureIn,VisibilityMPH,Wind Direction,Wind SpeedMPH,Gust SpeedMPH,PrecipitationIn,Events,Conditions,WindDirDegrees,DateUTC
12:53 AM,33.1,16.0,50,30.07,10.0,NNW,13.8,-,N/A,,Overcast,330,2012-12-06 05:53:00
1:53 AM,32.0,16.0,52,30.11,10.0,NW,11.5,25.3,N/A,,Mostly Cloudy,320,2012-12-06 06:53:00
2:53 AM,32.0,16.0,52,30.12,10.0,NW,11.5,-,N/A,,Mostly Cloudy,320,2012-12-06 07:53:00
3:53 AM,32.0,16.0,52,30.14,10.0,NW,9.2,-,N/A,,Overcast,320,2012-12-06 08:53:00
4:53 AM,28.9,15.1,56,30.17,10.0,NW,10.4,-,N/A,,Clear,320,2012-12-06 09:53:00
5:53 AM,30.0,14.0,51,30.18,10.0,NW,11.5,17.3,N/A,,Clear,310,2012-12-06 10:53:00
6:53 AM,32.0,14.0,48,30.21,10.0,NW,9.2,-,N/A,,Clear,320,2012-12-06 11:53:00
7:53 AM,35.1,14.0,42,30.23,10.0,NW,9.2,-,N/A,,Clear,320,2012-12-06 12:53:00
8:53 AM,30.9,14.0,50,30.25,10.0,NNW,11.5,18.4,N/A,,Clear,330,2012-12-06 13:53:00
9:53 AM,36.0,14.0,41,30.28,10.0,NW,10.4,-,N/A,,Clear,320,2012-12-06 14:53:00
10:53 AM,37.9,14.0,38,30.27,10.0,NW,8.1,-,N/A,,Clear,320,2012-12-06 15:53:00
11:53 AM,41.0,14.0,33,30.25,10.0,NW,10.4,-,N/A,,Clear,320,2012-12-06 16:53:00
12:53 PM,39.9,12.0,32,30.24,10.0,NW,10.4,-,N/A,,Clear,320,2012-12-06 17:53:00
1:53 PM,43.0,12.0,28,30.23,10.0,North,11.5,-,N/A,,Clear,360,2012-12-06 18:53:00
2:53 PM,42.1,12.9,31,30.25,10.0,North,9.2,-,N/A,,Clear,350,2012-12-06 19:53:00
3:53 PM,37.0,12.9,37,30.27,10.0,Calm,Calm,-,N/A,,Clear,0,2012-12-06 20:53:00
4:53 PM,37.0,12.9,37,30.28,10.0,Calm,Calm,-,N/A,,Clear,0,2012-12-06 21:53:00
5:53 PM,32.0,14.0,48,30.28,10.0,North,4.6,-,N/A,,Clear,350,2012-12-06 22:53:00
6:53 PM,33.1,15.1,48,30.30,10.0,Calm,Calm,-,N/A,,Clear,0,2012-12-06 23:53:00
7:53 PM,32.0,14.0,48,30.30,10.0,Calm,Calm,-,N/A,,Clear,0,2012-12-07 00:53:00
8:53 PM,30.0,15.1,54,30.29,10.0,Calm,Calm,-,N/A,,Clear,0,2012-12-07 01:53:00
9:53 PM,30.9,15.1,52,30.30,10.0,South,3.5,-,N/A,,Clear,190,2012-12-07 02:53:00
10:53 PM,27.0,16.0,63,30.30,10.0,Calm,Calm,-,N/A,,Clear,0,2012-12-07 03:53:00
11:53 PM,33.1,17.1,52,30.29,10.0,Calm,Calm,-,N/A,,Clear,0,2012-12-07 04:53:00